createdAt,value
2018-01-23T00:00:36.204Z,24.70
2018-01-23T00:03:03.404Z,27.23
2018-01-23T00:05:32.756Z,30.17
2018-01-23T00:08:00.584Z,26.20
2018-01-23T00:10:27.771Z,26.93
2018-01-23T00:12:57.346Z,26.93
2018-01-23T00:15:25.507Z,26.77
2018-01-23T00:17:56.564Z,25.40
2018-01-23T00:20:26.185Z,22.77
2018-01-23T00:22:54.162Z,25.63
2018-01-23T00:25:22.812Z,25.10
2018-01-23T00:27:54.861Z,25.30
2018-01-23T00:30:23.557Z,24.67
2018-01-23T00:32:52.030Z,25.20
2018-01-23T00:35:19.778Z,25.50
2018-01-23T00:37:54.668Z,24.10
2018-01-23T00:40:26.440Z,24.53
2018-01-23T00:42:56.957Z,22.13
2018-01-23T00:45:24.718Z,25.30
2018-01-23T00:47:54.719Z,29.93
2018-01-23T00:50:25.924Z,25.60
2018-01-23T00:52:56.474Z,27.97
2018-01-23T00:55:25.555Z,27.30
2018-01-23T00:57:55.829Z,32.23
2018-01-23T01:00:26.337Z,24.70
2018-01-23T01:02:56.436Z,30.43
2018-01-23T01:05:24.136Z,24.87
2018-01-23T01:07:53.203Z,31.23
2018-01-23T01:10:25.612Z,30.90
2018-01-23T01:12:54.864Z,29.73
2018-01-23T01:15:24.591Z,29.93
2018-01-23T01:17:54.412Z,27.63
2018-01-23T01:20:22.903Z,30.93
2018-01-23T01:22:52.691Z,29.87
2018-01-23T01:25:21.768Z,33.57
2018-01-23T01:27:50.698Z,29.40
2018-01-23T01:30:19.926Z,26.97
2018-01-23T01:32:49.148Z,31.03
2018-01-23T01:35:18.853Z,26.23
2018-01-23T01:37:47.648Z,25.17
2018-01-23T01:40:15.970Z,25.33
2018-01-23T01:42:45.701Z,27.37
2018-01-23T01:45:15.134Z,27.43
2018-01-23T01:47:45.878Z,25.07
2018-01-23T01:50:15.412Z,22.40
2018-01-23T01:52:49.842Z,24.57
2018-01-23T01:55:18.779Z,31.03
2018-01-23T01:57:46.766Z,28.93
2018-01-23T02:00:17.290Z,28.70
2018-01-23T02:02:46.467Z,23.23
2018-01-23T02:05:21.610Z,24.60
2018-01-23T02:07:49.180Z,30.90
2018-01-23T02:10:18.594Z,25.73
2018-01-23T02:12:47.648Z,22.70
2018-01-23T02:15:17.646Z,24.10
2018-01-23T02:17:46.622Z,23.77
2018-01-23T02:20:17.859Z,23.50
2018-01-23T02:22:48.481Z,21.43
2018-01-23T02:25:17.735Z,20.80
2018-01-23T02:27:46.201Z,23.00
2018-01-23T02:30:14.699Z,27.00
2018-01-23T02:32:43.907Z,20.77
2018-01-23T02:35:13.210Z,23.40
2018-01-23T02:37:42.168Z,19.97
2018-01-23T02:40:11.193Z,20.57
2018-01-23T02:42:41.562Z,23.23
2018-01-23T02:45:12.491Z,23.17
2018-01-23T02:47:41.746Z,22.30
2018-01-23T02:50:10.334Z,21.93
2018-01-23T02:52:40.785Z,22.93
2018-01-23T02:55:10.889Z,21.17
2018-01-23T02:57:39.260Z,22.20
2018-01-23T03:00:08.487Z,21.87
2018-01-23T03:02:37.468Z,21.03
2018-01-23T03:05:05.911Z,23.17
2018-01-23T03:07:34.894Z,21.20
2018-01-23T03:10:03.536Z,24.30
2018-01-23T03:12:32.188Z,23.70
2018-01-23T03:15:00.954Z,23.67
2018-01-23T03:17:30.159Z,25.43
2018-01-23T03:19:59.743Z,20.80
2018-01-23T03:22:30.721Z,23.40
2018-01-23T03:24:58.994Z,25.47
2018-01-23T03:27:34.722Z,21.77
2018-01-23T03:30:06.144Z,19.53
2018-01-23T03:32:34.983Z,22.70
2018-01-23T03:35:02.781Z,22.73
2018-01-23T03:37:31.430Z,24.87
2018-01-23T03:40:02.691Z,24.77
2018-01-23T03:42:32.007Z,25.17
2018-01-23T03:45:00.641Z,23.77
2018-01-23T03:47:31.189Z,24.07
2018-01-23T03:50:01.257Z,22.67
2018-01-23T03:52:30.318Z,23.03
2018-01-23T03:54:58.948Z,23.07
2018-01-23T03:57:26.515Z,24.27
2018-01-23T03:59:54.645Z,22.90
2018-01-23T04:02:22.786Z,24.27
2018-01-23T04:04:51.832Z,22.83
2018-01-23T04:07:24.405Z,21.10
2018-01-23T04:09:53.395Z,20.27
2018-01-23T04:12:22.376Z,23.03
2018-01-23T04:14:52.932Z,21.53
2018-01-23T04:17:21.138Z,21.67
2018-01-23T04:19:49.620Z,23.07
2018-01-23T04:22:17.810Z,20.23
2018-01-23T04:24:45.184Z,22.73
2018-01-23T04:27:15.681Z,23.23
2018-01-23T04:32:19.717Z,31.00
2018-01-23T04:34:47.920Z,33.73
2018-01-23T04:37:22.556Z,24.33
2018-01-23T04:39:51.966Z,25.90
2018-01-23T04:42:20.806Z,24.47
2018-01-23T04:44:49.009Z,23.03
2018-01-23T04:47:18.227Z,27.90
2018-01-23T04:49:46.952Z,29.20
2018-01-23T04:52:16.012Z,28.20
2018-01-23T04:54:43.968Z,21.90
2018-01-23T04:57:12.723Z,25.90
2018-01-23T04:59:41.941Z,24.70
2018-01-23T05:02:45.556Z,21.60
2018-01-23T05:05:14.269Z,22.43
2018-01-23T05:07:41.472Z,24.93
2018-01-23T05:10:10.218Z,19.67
2018-01-23T05:12:37.620Z,22.17
2018-01-23T05:15:06.234Z,24.33
2018-01-23T05:17:46.859Z,22.73
2018-01-23T05:20:13.477Z,29.27
2018-01-23T05:22:40.784Z,23.70
2018-01-23T05:25:11.251Z,24.93
2018-01-23T05:27:41.359Z,25.17
2018-01-23T05:30:08.783Z,21.63
2018-01-23T05:32:36.816Z,18.87
2018-01-23T05:35:06.779Z,27.10
2018-01-23T05:37:34.252Z,24.57
2018-01-23T05:40:03.513Z,29.57
2018-01-23T05:42:31.978Z,25.00
2018-01-23T05:45:00.460Z,21.87
2018-01-23T05:47:27.667Z,24.67
2018-01-23T05:49:55.415Z,22.97
2018-01-23T05:52:24.110Z,24.77
2018-01-23T06:01:36.049Z,27.07
2018-01-23T06:04:04.258Z,24.77
2018-01-23T06:06:31.175Z,28.00
2018-01-23T06:08:59.452Z,31.30
2018-01-23T06:11:27.673Z,25.63
2018-01-23T06:13:56.102Z,23.63
2018-01-23T06:16:25.399Z,27.23
2018-01-23T06:18:53.357Z,29.20
2018-01-23T06:21:21.372Z,22.93
2018-01-23T06:23:48.900Z,20.83
2018-01-23T06:26:18.393Z,25.87
2018-01-23T06:28:46.864Z,19.93
2018-01-23T06:31:18.631Z,19.13
2018-01-23T06:33:49.678Z,25.30
2018-01-23T06:36:23.857Z,22.10
2018-01-23T06:38:52.991Z,22.20
2018-01-23T06:41:20.538Z,22.10
2018-01-23T06:43:49.190Z,21.83
2018-01-23T06:46:21.273Z,22.37
2018-01-23T06:48:49.236Z,30.97
2018-01-23T06:51:16.748Z,27.83
2018-01-23T06:53:44.361Z,23.87
2018-01-23T06:56:16.925Z,18.47
2018-01-23T06:58:45.771Z,22.67
2018-01-23T07:01:12.646Z,28.40
2018-01-23T07:03:40.175Z,30.30
2018-01-23T07:06:10.972Z,35.03
2018-01-23T07:08:40.671Z,21.03
2018-01-23T07:11:08.660Z,24.87
2018-01-23T07:13:36.515Z,20.90
2018-01-23T07:16:07.660Z,22.43
2018-01-23T07:18:36.916Z,19.93
2018-01-23T07:21:05.130Z,24.23
2018-01-23T07:23:32.822Z,20.03
2018-01-23T07:26:05.898Z,19.17
2018-01-23T07:28:34.160Z,17.57
2018-01-23T07:31:01.824Z,19.27
2018-01-23T07:33:32.367Z,26.87
2018-01-23T07:36:02.165Z,31.37
2018-01-23T07:38:32.672Z,21.60
2018-01-23T07:41:02.945Z,21.73
2018-01-23T07:43:34.025Z,32.03
2018-01-23T07:46:03.765Z,17.13
2018-01-23T07:48:33.811Z,26.10
2018-01-23T07:51:03.282Z,16.43
2018-01-23T07:53:32.312Z,24.00
2018-01-23T07:56:07.925Z,17.93
2018-01-23T07:58:36.403Z,19.70
2018-01-23T08:01:05.226Z,17.47
2018-01-23T08:03:34.427Z,20.47
2018-01-23T08:06:03.893Z,18.63
2018-01-23T08:08:32.884Z,17.13
2018-01-23T08:11:03.794Z,20.43
2018-01-23T08:13:33.054Z,20.67
2018-01-23T08:16:06.432Z,19.20
2018-01-23T08:18:35.116Z,27.90
2018-01-23T08:21:02.582Z,22.47
2018-01-23T08:23:30.949Z,17.33
2018-01-23T08:26:00.205Z,29.83
2018-01-23T08:28:29.702Z,18.07
2018-01-23T08:30:58.011Z,15.70
2018-01-23T08:33:25.909Z,19.13
2018-01-23T08:35:56.441Z,20.10
2018-01-23T08:38:25.709Z,19.30
2018-01-23T08:40:53.265Z,17.83
2018-01-23T08:43:24.024Z,21.30
2018-01-23T08:45:54.187Z,17.60
2018-01-23T08:48:22.164Z,18.53
2018-01-23T08:50:50.143Z,15.00
2018-01-23T08:53:18.259Z,17.27
2018-01-23T08:55:47.349Z,19.83
2018-01-23T08:58:15.614Z,14.80
2018-01-23T09:00:44.843Z,30.77
2018-01-23T09:03:15.093Z,36.03
2018-01-23T09:05:44.351Z,15.30
2018-01-23T09:08:12.059Z,15.80
2018-01-23T09:10:39.415Z,13.60
2018-01-23T09:13:08.277Z,15.13
2018-01-23T09:15:36.474Z,13.27
2018-01-23T09:18:05.526Z,12.97
2018-01-23T09:20:33.348Z,15.27
2018-01-23T09:23:01.166Z,15.57
2018-01-23T09:25:30.147Z,11.20
2018-01-23T09:27:58.276Z,12.50
2018-01-23T09:30:26.104Z,15.77
2018-01-23T09:32:53.737Z,13.50
2018-01-23T09:35:22.460Z,23.50
2018-01-23T09:37:49.437Z,11.97
2018-01-23T09:40:17.463Z,13.83
2018-01-23T09:42:45.438Z,12.53
2018-01-23T09:45:17.511Z,12.87
2018-01-23T09:47:47.252Z,15.00
2018-01-23T09:50:14.710Z,16.97
2018-01-23T09:52:43.489Z,17.67
2018-01-23T09:55:12.183Z,11.87
2018-01-23T09:57:41.602Z,13.07
2018-01-23T10:00:09.793Z,11.93
2018-01-23T10:02:37.668Z,18.20
2018-01-23T10:05:10.091Z,11.23
2018-01-23T10:07:40.843Z,21.90
2018-01-23T10:10:12.559Z,14.30
2018-01-23T10:12:43.093Z,16.20
2018-01-23T10:15:16.518Z,13.43
2018-01-23T10:17:47.242Z,8.50
2018-01-23T10:20:15.947Z,16.17
2018-01-23T10:22:47.292Z,15.40
2018-01-23T10:25:22.406Z,10.53
2018-01-23T10:27:54.448Z,14.03
2018-01-23T10:30:23.224Z,8.70
2018-01-23T10:32:52.437Z,11.43
2018-01-23T10:35:27.264Z,12.70
2018-01-23T10:37:58.908Z,10.53
2018-01-23T10:40:28.854Z,16.77
2018-01-23T10:43:02.318Z,17.87
2018-01-23T10:45:34.601Z,13.27
2018-01-23T10:48:06.921Z,9.90
2018-01-23T10:50:36.926Z,20.90
2018-01-23T10:53:08.274Z,15.00
2018-01-23T10:55:42.063Z,11.93
2018-01-23T10:58:15.904Z,10.03
2018-01-23T11:00:51.300Z,10.03
2018-01-23T11:03:22.621Z,16.60
2018-01-23T11:05:59.282Z,11.37
2018-01-23T11:08:32.135Z,9.73
2018-01-23T11:11:02.638Z,8.10
2018-01-23T11:13:32.188Z,11.53
2018-01-23T11:16:08.597Z,12.80
2018-01-23T11:18:38.933Z,12.90
2018-01-23T11:21:08.583Z,9.87
2018-01-23T11:23:39.528Z,9.47
2018-01-23T11:26:15.820Z,11.20
2018-01-23T11:28:48.477Z,12.40
2018-01-23T11:31:17.608Z,17.20
2018-01-23T11:33:48.035Z,12.63
2018-01-23T11:36:20.080Z,13.83
2018-01-23T11:38:46.918Z,14.27
2018-01-23T11:41:18.488Z,14.40
2018-01-23T11:43:48.754Z,10.67
2018-01-23T11:46:19.070Z,13.50
2018-01-23T11:48:51.351Z,11.70
2018-01-23T11:51:23.751Z,8.53
2018-01-23T11:53:52.918Z,12.47
2018-01-23T11:56:21.562Z,19.20
2018-01-23T11:58:50.403Z,12.20
2018-01-23T12:01:20.655Z,14.10
2018-01-23T12:03:49.554Z,9.20
2018-01-23T12:06:18.385Z,7.53
2018-01-23T12:08:49.708Z,7.43
2018-01-23T12:11:20.357Z,9.13
2018-01-23T12:13:53.047Z,8.50
2018-01-23T12:16:24.469Z,9.60
2018-01-23T12:18:53.730Z,8.50
2018-01-23T12:21:25.144Z,12.03
2018-01-23T12:23:57.495Z,15.53
2018-01-23T12:26:26.972Z,18.73
2018-01-23T12:28:55.566Z,11.53
2018-01-23T12:31:25.498Z,9.80
2018-01-23T12:33:56.904Z,15.67
2018-01-23T12:36:26.534Z,9.17
2018-01-23T12:38:57.401Z,7.83
2018-01-23T12:41:27.154Z,7.70
2018-01-23T12:43:58.429Z,10.80
2018-01-23T12:46:28.568Z,10.63
2018-01-23T12:48:58.163Z,11.77
2018-01-23T12:51:31.339Z,9.33
2018-01-23T12:54:04.918Z,9.60
2018-01-23T12:56:36.947Z,8.20
2018-01-23T12:59:10.035Z,7.87
2018-01-23T13:01:37.209Z,8.00
2018-01-23T13:04:08.175Z,8.57
2018-01-23T13:06:34.629Z,14.07
2018-01-23T13:09:02.091Z,8.73
2018-01-23T13:11:28.823Z,7.73
2018-01-23T13:13:55.263Z,10.73
2018-01-23T13:16:22.437Z,11.40
2018-01-23T13:18:49.104Z,15.80
2018-01-23T13:21:16.513Z,17.57
2018-01-23T13:23:43.195Z,12.43
2018-01-23T13:26:09.719Z,10.47
2018-01-23T13:28:36.669Z,7.70
2018-01-23T13:31:03.819Z,7.27
2018-01-23T13:33:30.262Z,12.73
2018-01-23T13:35:57.279Z,16.13
2018-01-23T13:38:23.956Z,9.27
2018-01-23T13:40:50.662Z,10.20
2018-01-23T13:43:17.544Z,9.33
2018-01-23T13:45:48.885Z,7.37
2018-01-23T13:48:15.459Z,11.43
2018-01-23T13:50:42.257Z,11.83
2018-01-23T13:53:08.891Z,9.37
2018-01-23T13:55:36.912Z,10.10
2018-01-23T13:58:03.609Z,8.77
2018-01-23T14:00:30.643Z,10.57
2018-01-23T14:02:57.477Z,16.27
2018-01-23T14:05:24.396Z,20.63
2018-01-23T14:07:51.788Z,11.80
2018-01-23T14:10:18.764Z,16.23
2018-01-23T14:12:45.786Z,10.60
2018-01-23T14:15:12.673Z,11.37
2018-01-23T14:17:40.159Z,11.43
2018-01-23T14:20:07.912Z,16.70
2018-01-23T14:22:34.591Z,19.03
2018-01-23T14:25:02.270Z,16.87
2018-01-23T14:27:28.924Z,11.67
2018-01-23T14:29:55.765Z,11.73
2018-01-23T14:32:23.145Z,13.67
2018-01-23T14:34:50.643Z,13.47
2018-01-23T14:37:17.294Z,16.07
2018-01-23T14:39:44.240Z,25.33
2018-01-23T14:42:10.743Z,23.73
2018-01-23T14:44:38.573Z,23.90
2018-01-23T14:47:04.913Z,19.47
2018-01-23T14:49:31.435Z,22.57
2018-01-23T14:51:58.382Z,15.53
2018-01-23T14:54:25.886Z,15.20
2018-01-23T14:56:53.389Z,13.47
2018-01-23T14:59:20.569Z,16.23
2018-01-23T15:01:48.992Z,13.87
2018-01-23T15:04:16.539Z,14.23
2018-01-23T15:06:43.968Z,16.13
2018-01-23T15:09:10.324Z,16.80
2018-01-23T15:11:36.614Z,15.50
2018-01-23T15:14:02.786Z,15.53
2018-01-23T15:16:29.067Z,17.37
2018-01-23T15:18:55.466Z,17.70
2018-01-23T15:21:21.661Z,14.93
2018-01-23T15:23:51.914Z,22.23
2018-01-23T15:26:18.888Z,31.07
2018-01-23T15:28:45.250Z,28.20
2018-01-23T15:31:11.724Z,28.87
2018-01-23T15:33:39.744Z,27.77
2018-01-23T15:36:06.628Z,18.20
2018-01-23T15:38:33.113Z,15.17
2018-01-23T15:41:00.692Z,13.57
2018-01-23T15:43:28.307Z,28.07
2018-01-23T15:45:58.947Z,17.53
2018-01-23T15:48:26.650Z,25.07
2018-01-23T15:50:55.165Z,22.77
2018-01-23T15:53:26.684Z,23.77
2018-01-23T15:55:53.202Z,23.00
2018-01-23T15:58:20.097Z,31.87
2018-01-23T16:00:48.120Z,33.70
2018-01-23T16:03:19.751Z,29.73
2018-01-23T16:05:47.048Z,25.07
2018-01-23T16:08:13.648Z,38.23
2018-01-23T16:10:40.098Z,37.97
2018-01-23T16:13:11.980Z,34.33
2018-01-23T16:15:42.778Z,24.27
2018-01-23T16:18:10.468Z,22.33
2018-01-23T16:20:37.173Z,32.97
2018-01-23T16:23:03.985Z,21.57
2018-01-23T16:25:34.170Z,27.87
2018-01-23T16:28:01.759Z,30.23
2018-01-23T16:30:28.727Z,23.70
2018-01-23T16:32:56.500Z,24.77
2018-01-23T16:35:28.317Z,28.10
2018-01-23T16:37:59.622Z,41.50
2018-01-23T16:40:27.101Z,45.70
2018-01-23T16:42:54.405Z,38.10
2018-01-23T16:45:22.173Z,37.27
2018-01-23T16:47:53.831Z,56.33
2018-01-23T16:50:25.110Z,33.67
2018-01-23T16:52:53.830Z,38.80
2018-01-23T16:58:01.915Z,22.80
2018-01-23T17:00:32.858Z,32.57
2018-01-23T17:03:04.402Z,26.97
2018-01-23T17:05:35.469Z,26.23
2018-01-23T17:08:05.585Z,23.63
2018-01-23T17:10:35.990Z,22.63
2018-01-23T17:13:05.252Z,26.67
2018-01-23T17:15:36.844Z,32.00
2018-01-23T17:18:07.070Z,40.00
2018-01-23T17:20:36.779Z,32.87
2018-01-23T17:23:07.396Z,47.07
2018-01-23T17:25:36.092Z,23.13
2018-01-23T17:28:06.659Z,38.10
2018-01-23T17:30:34.344Z,35.53
2018-01-23T17:33:02.817Z,49.03
2018-01-23T17:35:33.602Z,31.10
2018-01-23T17:38:03.644Z,28.67
2018-01-23T17:40:32.371Z,33.17
2018-01-23T17:43:01.094Z,35.90
2018-01-23T17:45:30.101Z,27.77
2018-01-23T17:47:57.800Z,32.80
2018-01-23T17:50:25.776Z,27.97
2018-01-23T17:52:55.039Z,29.17
2018-01-23T17:55:26.577Z,26.97
2018-01-23T17:57:55.724Z,29.00
2018-01-23T18:00:26.490Z,27.87
2018-01-23T18:02:56.387Z,25.97
2018-01-23T18:05:25.006Z,25.03
2018-01-23T18:07:55.323Z,34.17
2018-01-23T18:10:26.202Z,47.90
2018-01-23T18:12:56.207Z,41.87
2018-01-23T18:15:29.680Z,30.30
2018-01-23T18:18:02.896Z,34.30
2018-01-23T18:20:32.925Z,27.27
2018-01-23T18:23:05.671Z,27.50
2018-01-23T18:25:37.221Z,29.23
2018-01-23T18:28:04.930Z,26.90
2018-01-23T18:30:32.966Z,31.93
2018-01-23T18:33:05.191Z,30.67
2018-01-23T18:35:33.716Z,31.40
2018-01-23T18:38:03.801Z,28.97
2018-01-23T18:40:32.384Z,27.50
2018-01-23T18:43:08.645Z,32.27
2018-01-23T18:45:39.865Z,31.10
2018-01-23T18:48:14.334Z,31.50
2018-01-23T18:50:44.393Z,32.40
2018-01-23T18:53:17.244Z,29.20
2018-01-23T18:55:46.981Z,32.57
2018-01-23T18:58:16.370Z,28.93
2018-01-23T19:00:50.381Z,35.47
2018-01-23T19:03:20.688Z,36.73
2018-01-23T19:05:57.297Z,34.13
2018-01-23T19:08:29.082Z,31.90
2018-01-23T19:10:57.055Z,30.80
2018-01-23T19:13:32.141Z,28.50
2018-01-23T19:16:02.004Z,28.33
2018-01-23T19:18:33.709Z,26.13
2018-01-23T19:21:04.715Z,26.77
2018-01-23T19:23:33.588Z,36.27
2018-01-23T19:26:02.146Z,36.67
2018-01-23T19:28:30.778Z,38.67
2018-01-23T19:30:58.488Z,27.90
2018-01-23T19:33:28.502Z,29.07
2018-01-23T19:35:56.668Z,30.93
2018-01-23T19:38:25.970Z,25.53
2018-01-23T19:40:54.697Z,21.40
2018-01-23T19:43:29.322Z,25.07
2018-01-23T19:46:00.406Z,62.70
2018-01-23T19:48:32.958Z,24.17
2018-01-23T19:51:04.719Z,24.63
2018-01-23T19:53:39.387Z,24.50
2018-01-23T19:56:09.489Z,22.73
2018-01-23T19:58:42.049Z,30.10
2018-01-23T20:01:15.044Z,24.50
2018-01-23T20:03:45.007Z,21.63
2018-01-23T20:06:14.619Z,26.43
2018-01-23T20:08:43.217Z,27.27
2018-01-23T20:11:13.874Z,24.70
2018-01-23T20:13:44.503Z,27.97
2018-01-23T20:16:13.450Z,23.37
2018-01-23T20:18:43.171Z,19.50
2018-01-23T20:21:14.748Z,25.97
2018-01-23T20:23:45.520Z,21.13
2018-01-23T20:26:14.273Z,28.33
2018-01-23T20:28:43.229Z,22.83
2018-01-23T20:31:13.157Z,21.40
2018-01-23T20:33:42.231Z,19.73
2018-01-23T20:36:12.569Z,20.83
2018-01-23T20:38:41.859Z,19.73
2018-01-23T20:41:13.311Z,21.10
2018-01-23T20:43:44.628Z,22.47
2018-01-23T20:46:13.325Z,23.27
2018-01-23T20:48:43.458Z,20.63
2018-01-23T20:51:12.352Z,22.87
2018-01-23T20:53:45.439Z,21.73
2018-01-23T20:56:15.124Z,21.37
2018-01-23T20:58:42.306Z,16.80
2018-01-23T21:01:13.529Z,21.13
2018-01-23T21:03:45.028Z,19.03
2018-01-23T21:06:14.263Z,22.83
2018-01-23T21:08:43.146Z,21.60
2018-01-23T21:11:15.097Z,13.13
2018-01-23T21:13:50.540Z,20.30
2018-01-23T21:16:19.090Z,19.07
2018-01-23T21:18:48.946Z,22.97
2018-01-23T21:21:19.477Z,16.47
2018-01-23T21:23:54.625Z,14.50
2018-01-23T21:26:24.147Z,15.77
2018-01-23T21:28:59.794Z,16.67
2018-01-23T21:31:28.652Z,15.77
2018-01-23T21:34:00.055Z,14.97
2018-01-23T21:36:30.118Z,25.00
2018-01-23T21:38:58.963Z,17.57
2018-01-23T21:41:27.950Z,14.30
2018-01-23T21:43:56.298Z,13.93
2018-01-23T21:46:25.800Z,19.47
2018-01-23T21:48:55.008Z,13.33
2018-01-23T21:51:22.779Z,15.53
2018-01-23T21:53:54.323Z,14.23
2018-01-23T21:56:24.210Z,16.13
2018-01-23T21:58:56.921Z,13.50
2018-01-23T22:01:26.717Z,14.47
2018-01-23T22:03:57.721Z,15.27
2018-01-23T22:06:25.995Z,27.27
2018-01-23T22:08:54.160Z,22.13
2018-01-23T22:11:24.466Z,17.03
2018-01-23T22:13:54.736Z,17.13
2018-01-23T22:16:23.155Z,15.27
2018-01-23T22:18:53.230Z,15.47
2018-01-23T22:21:21.699Z,39.63
2018-01-23T22:23:55.087Z,18.37
2018-01-23T22:26:25.563Z,20.13
2018-01-23T22:28:54.454Z,16.53
2018-01-23T22:31:22.793Z,14.87
2018-01-23T22:33:53.661Z,20.37
2018-01-23T22:36:21.805Z,15.60
2018-01-23T22:38:51.896Z,15.20
2018-01-23T22:41:23.166Z,19.53
2018-01-23T22:43:53.638Z,16.97
2018-01-23T22:46:22.903Z,16.60
2018-01-23T22:48:52.964Z,16.20
2018-01-23T22:51:20.707Z,15.73
2018-01-23T22:53:56.152Z,15.50
2018-01-23T22:56:28.494Z,16.33
2018-01-23T22:58:58.621Z,15.60
2018-01-23T23:01:27.868Z,18.80
2018-01-23T23:03:57.647Z,18.60
2018-01-23T23:06:26.116Z,15.33
2018-01-23T23:08:56.147Z,17.83
2018-01-23T23:11:25.624Z,16.77
2018-01-23T23:13:58.844Z,14.60
2018-01-23T23:16:27.113Z,15.03
2018-01-23T23:18:56.108Z,15.43
2018-01-23T23:21:26.637Z,16.80
2018-01-23T23:23:57.061Z,15.43
2018-01-23T23:26:25.500Z,18.53
2018-01-23T23:28:54.989Z,18.23
2018-01-23T23:31:28.445Z,16.67
2018-01-23T23:34:02.383Z,16.10
2018-01-23T23:36:31.718Z,17.53
2018-01-23T23:39:02.014Z,16.07
2018-01-23T23:41:31.125Z,16.10
2018-01-23T23:44:02.745Z,15.37
2018-01-23T23:46:32.042Z,17.00
2018-01-23T23:49:01.142Z,14.83
2018-01-23T23:51:31.064Z,17.33
2018-01-23T23:54:07.460Z,19.87
2018-01-23T23:56:38.475Z,17.43
2018-01-23T23:59:08.018Z,18.07
